Time;durP1;ratioP1;P1;durP2;ratioP2;P2;SDS_P1;SDS_P2;PMS_P1;PMS_P2;Temp;Humidity;BMP_temperature;BMP_pressure;BME280_temperature;BME280_humidity;BME280_pressure;Samples;Min_cycle;Max_cycle;Signal;HPM_P1;HPM_P2
2022/04/06 00:00:16;;;;;;;8.40;7.50;;;9.00;91.90;;;7.75;84.97;97196.88;5037754;28;20497;-73
2022/04/06 00:02:43;;;;;;;9.20;8.30;;;9.00;91.40;;;7.67;85.53;97200.66;5042054;28;20463;-74
2022/04/06 00:05:11;;;;;;;8.50;7.60;;;9.00;91.60;;;7.56;85.93;97187.88;5038547;28;21280;-74
2022/04/06 00:07:38;;;;;;;9.73;8.73;;;8.90;91.80;;;7.60;86.24;97189.94;5048005;28;20971;-74
2022/04/06 00:10:09;;;;;;;9.20;8.30;;;8.90;92.20;;;7.61;86.25;97183.50;5043496;28;20505;-73
2022/04/06 00:12:38;;;;;;;8.20;7.40;;;8.90;92.10;;;7.71;85.64;97184.91;5042152;28;20906;-76
2022/04/06 00:15:09;;;;;;;9.20;8.17;;;9.00;91.80;;;7.21;86.00;97128.16;5040767;28;20474;-73
2022/04/06 00:17:37;;;;;;;8.37;7.57;;;8.90;92.10;;;7.70;86.11;97184.06;5044858;28;20558;-73
2022/04/06 00:20:06;;;;;;;9.33;8.13;;;8.90;92.30;;;7.71;86.07;97185.72;5041298;28;20655;-73
2022/04/06 00:22:33;;;;;;;8.20;7.40;;;9.00;92.00;;;7.61;86.88;97180.81;5045280;28;20478;-73
2022/04/06 00:25:00;;;;;;;8.57;7.77;;;9.00;92.40;;;7.57;87.60;97179.63;5044360;28;20564;-74
2022/04/06 00:27:28;;;;;;;8.83;7.93;;;8.90;92.80;;;7.67;87.08;97178.34;5042978;28;20568;-73
2022/04/06 00:29:56;;;;;;;9.23;7.67;;;8.90;92.80;;;7.64;86.79;97166.13;5044292;28;20458;-74
2022/04/06 00:32:23;;;;;;;7.20;6.57;;;9.00;92.50;;;7.45;87.51;97154.47;5042064;28;20478;-74
2022/04/06 00:37:35;;;;;;;7.60;6.90;;;8.90;93.00;;;7.69;86.77;97171.69;5044435;28;20450;-75
2022/04/06 00:40:02;;;;;;;7.30;6.50;;;9.00;92.50;;;7.70;86.96;97161.75;5050352;28;20482;-74
2022/04/06 00:42:30;;;;;;;8.20;7.30;;;9.00;92.80;;;7.82;86.69;97173.47;5042674;28;22439;-75
2022/04/06 00:44:57;;;;;;;7.43;6.70;;;9.00;92.70;;;7.81;86.19;97169.13;5043501;28;20464;-74
2022/04/06 00:47:24;;;;;;;6.30;5.80;;;9.00;92.60;;;7.80;86.75;97172.84;5048049;28;20460;-73
2022/04/06 00:49:51;;;;;;;7.77;7.10;;;9.10;92.80;;;7.76;86.94;97177.00;5057224;28;20567;-73
2022/04/06 00:52:20;;;;;;;7.17;6.47;;;9.10;92.60;;;7.85;86.53;97170.34;5040503;28;20509;-73
2022/04/06 00:54:49;;;;;;;8.40;7.00;;;9.10;92.60;;;7.77;87.30;97167.91;5037227;28;20463;-74
2022/04/06 00:57:19;;;;;;;7.33;6.60;;;9.10;92.80;;;7.61;87.11;97143.19;5039285;28;20466;-73
2022/04/06 00:59:48;;;;;;;6.67;6.07;;;9.00;92.80;;;7.76;87.10;97174.31;5041658;28;20538;-73
2022/04/06 01:02:16;;;;;;;7.13;6.43;;;9.10;92.90;;;7.74;87.32;97174.56;5040101;28;20606;-74
2022/04/06 01:04:43;;;;;;;7.30;6.57;;;9.10;93.10;;;7.74;87.42;97171.03;5037620;28;20470;-74
2022/04/06 01:07:10;;;;;;;7.30;6.60;;;9.00;93.20;;;7.62;88.39;97173.59;5044665;28;20533;-74
2022/04/06 01:09:37;;;;;;;8.03;7.23;;;9.00;93.70;;;7.66;88.24;97161.38;5041440;28;20540;-73
2022/04/06 01:12:05;;;;;;;7.60;6.50;;;9.00;94.30;;;7.73;88.21;97172.06;5035624;28;20456;-73
2022/04/06 01:14:34;;;;;;;6.90;6.27;;;9.00;94.40;;;7.76;88.44;97166.25;5037744;28;20449;-73
2022/04/06 01:17:07;;;;;;;7.30;6.60;;;9.10;94.10;;;7.86;88.24;97171.97;5044747;28;20556;-72
2022/04/06 01:19:35;;;;;;;7.33;6.50;;;9.10;94.20;;;7.84;88.20;97173.22;5043991;28;20456;-72
2022/04/06 01:22:07;;;;;;;8.10;6.77;;;9.10;94.30;;;7.70;89.33;97167.94;5045676;28;20554;-73
2022/04/06 01:24:34;;;;;;;8.27;7.47;;;9.00;95.00;;;7.25;89.84;97106.22;5037403;28;20490;-73
2022/04/06 01:27:04;;;;;;;7.77;6.97;;;9.00;95.70;;;7.71;90.27;97179.53;5043125;28;20452;-72
2022/04/06 01:29:31;;;;;;;7.90;7.10;;;9.00;96.60;;;7.58;91.13;97161.63;5044615;28;21387;-74
2022/04/06 01:32:09;;;;;;;7.70;7.00;;;8.90;97.20;;;7.56;90.95;97161.84;5043239;28;20457;-74
2022/04/06 01:34:37;;;;;;;7.50;6.80;;;8.90;98.20;;;7.52;91.54;97160.63;5042419;28;20453;-74
2022/04/06 01:37:05;;;;;;;8.47;6.97;;;8.90;98.70;;;7.54;92.19;97163.09;5059187;28;20496;-74
2022/04/06 01:39:34;;;;;;;7.70;6.90;;;8.80;99.50;;;7.57;91.70;97176.94;5037299;28;21443;-75
2022/04/06 01:42:02;;;;;;;7.00;6.30;;;8.80;99.90;;;7.61;92.44;97169.25;5047008;28;20453;-73
2022/04/06 01:44:29;;;;;;;7.87;7.07;;;8.90;99.90;;;7.54;93.10;97174.69;5038126;28;20550;-72
2022/04/06 01:46:56;;;;;;;7.77;7.10;;;8.90;99.90;;;7.40;94.56;97165.88;5041943;28;20512;-73
2022/04/06 01:52:15;;;;;;;7.67;6.97;;;8.60;99.90;;;7.34;96.11;97174.78;5035763;28;20465;-73
2022/04/06 01:54:46;;;;;;;7.90;7.20;;;8.60;99.90;;;7.32;96.62;97171.50;5043189;28;20459;-74
2022/04/06 01:57:14;;;;;;;7.90;7.20;;;8.60;99.90;;;7.24;96.96;97164.53;5032826;28;20462;-73
2022/04/06 01:59:42;;;;;;;7.40;6.70;;;8.60;99.90;;;7.25;97.85;97171.53;5040230;28;20462;-73
2022/04/06 02:02:10;;;;;;;8.67;7.73;;;8.50;99.90;;;7.05;97.95;97156.34;5039991;28;20455;-74
2022/04/06 02:04:38;;;;;;;9.40;8.50;;;8.50;99.90;;;7.10;98.29;97171.81;5037326;28;20563;-74
2022/04/06 02:07:06;;;;;;;9.47;8.57;;;8.50;99.90;;;7.12;98.91;97158.16;5041762;28;20884;-74
2022/04/06 02:09:36;;;;;;;9.97;8.97;;;8.40;99.90;;;6.97;99.10;97153.06;5038073;28;20514;-74
2022/04/06 02:12:05;;;;;;;11.37;9.80;;;8.40;99.90;;;7.02;99.89;97155.94;5039496;28;20461;-74
2022/04/06 02:14:32;;;;;;;10.90;9.80;;;8.40;99.90;;;7.06;99.79;97163.38;5038278;28;20576;-77
2022/04/06 02:16:59;;;;;;;10.07;9.17;;;8.40;99.90;;;7.04;100.00;97154.69;5033003;28;20956;-74
2022/04/06 02:19:27;;;;;;;10.83;9.63;;;8.40;99.90;;;7.00;99.73;97145.41;5039466;28;20457;-75
2022/04/06 02:21:54;;;;;;;9.43;8.50;;;8.40;99.90;;;7.02;99.97;97148.69;5037864;28;20550;-75
2022/04/06 02:24:21;;;;;;;11.33;9.17;;;8.30;99.90;;;7.01;99.71;97159.69;5034279;28;20535;-75
2022/04/06 02:26:48;;;;;;;10.03;9.13;;;8.40;99.90;;;7.09;99.38;97146.81;5042371;28;20472;-75
2022/04/06 02:29:16;;;;;;;11.00;9.90;;;8.40;99.90;;;7.19;98.89;97151.72;5040736;28;20492;-75
2022/04/06 02:31:44;;;;;;;11.17;9.97;;;8.50;99.90;;;7.18;98.72;97144.72;5040295;28;20537;-75
2022/04/06 02:34:11;;;;;;;10.60;9.50;;;8.50;99.90;;;7.08;98.05;97139.81;5036500;28;20508;-74
2022/04/06 02:36:38;;;;;;;10.70;9.60;;;8.50;99.90;;;7.18;98.36;97139.34;5040225;28;20594;-75
2022/04/06 02:39:05;;;;;;;10.30;9.30;;;8.50;99.90;;;7.18;98.58;97150.06;5041691;28;20496;-75
2022/04/06 02:41:32;;;;;;;11.13;10.10;;;8.50;99.90;;;7.17;98.52;97152.97;5038369;28;20453;-73
2022/04/06 02:43:59;;;;;;;11.90;10.70;;;8.50;99.90;;;7.20;98.80;97155.22;5038063;28;20487;-75
2022/04/06 02:46:28;;;;;;;12.10;10.90;;;8.50;99.90;;;7.18;98.29;97149.25;5037599;28;20568;-74
2022/04/06 02:48:55;;;;;;;12.20;11.10;;;8.50;99.90;;;7.22;98.40;97140.53;5038103;28;20539;-74
2022/04/06 02:51:22;;;;;;;12.90;11.70;;;8.50;99.90;;;7.13;98.55;97136.47;5042497;28;20934;-73
2022/04/06 02:53:49;;;;;;;11.90;10.80;;;8.50;99.90;;;7.08;98.85;97142.50;5042359;28;20479;-76
2022/04/06 02:56:16;;;;;;;12.90;11.80;;;8.40;99.90;;;6.98;99.36;97134.06;5055710;28;20473;-76
2022/04/06 02:58:43;;;;;;;12.07;10.83;;;8.40;99.90;;;6.65;99.21;97070.59;5046069;28;20553;-74
2022/04/06 03:01:10;;;;;;;12.63;11.40;;;8.40;99.90;;;6.97;99.55;97127.03;5040709;28;20547;-73
2022/04/06 03:03:39;;;;;;;13.87;12.40;;;8.30;99.90;;;7.07;99.39;97132.78;5043665;28;20476;-73
2022/04/06 03:06:07;;;;;;;13.77;12.33;;;8.40;99.90;;;7.01;99.75;97122.88;5043430;28;20456;-74
2022/04/06 03:08:34;;;;;;;13.10;11.80;;;8.30;99.90;;;6.99;99.74;97119.59;5036845;28;20473;-75
2022/04/06 03:11:01;;;;;;;13.33;11.80;;;8.30;99.90;;;6.91;99.59;97114.47;5040454;28;21116;-74
2022/04/06 03:13:29;;;;;;;12.73;11.20;;;8.30;99.90;;;7.00;98.92;97115.88;5036479;28;20473;-74
2022/04/06 03:15:56;;;;;;;12.83;11.60;;;8.30;99.90;;;7.00;98.89;97115.88;5044003;28;20478;-74
2022/04/06 03:18:23;;;;;;;12.47;11.27;;;8.30;99.90;;;7.05;98.38;97117.91;5039380;28;20470;-74
2022/04/06 03:20:52;;;;;;;13.23;12.00;;;8.40;99.90;;;7.06;98.61;97115.03;5036444;28;20974;-75
2022/04/06 03:23:19;;;;;;;13.63;12.30;;;8.40;99.90;;;7.03;98.70;97115.44;5060869;28;20468;-75
2022/04/06 03:25:46;;;;;;;12.30;11.10;;;8.30;99.90;;;7.13;98.10;97119.53;5042509;28;20954;-75
2022/04/06 03:28:13;;;;;;;12.87;11.67;;;8.40;99.90;;;7.14;97.80;97116.63;5041141;28;20465;-75
2022/04/06 03:30:41;;;;;;;13.03;11.73;;;8.40;99.90;;;7.14;98.35;97108.56;5038930;28;20556;-74
2022/04/06 03:33:09;;;;;;;13.87;12.43;;;8.40;99.90;;;7.07;98.97;97113.97;5040836;28;20479;-74
2022/04/06 03:35:36;;;;;;;15.07;11.93;;;8.40;99.90;;;7.04;98.81;97106.34;5038906;28;20460;-74
2022/04/06 03:38:05;;;;;;;14.33;13.00;;;8.40;99.90;;;6.98;99.65;97096.47;5045223;28;20455;-74
2022/04/06 03:40:32;;;;;;;14.80;13.40;;;8.30;99.90;;;6.89;99.63;97081.63;5041063;28;20579;-73
2022/04/06 03:42:59;;;;;;;13.87;12.37;;;8.30;99.90;;;6.95;99.92;97102.25;5041245;28;20516;-74
2022/04/06 03:45:26;;;;;;;14.83;13.07;;;8.30;99.90;;;7.00;99.60;97107.00;5035613;28;20472;-74
2022/04/06 03:47:53;;;;;;;14.17;12.83;;;8.30;99.90;;;7.02;99.83;97092.28;5056978;28;21197;-73
2022/04/06 03:50:20;;;;;;;14.23;12.73;;;8.30;99.90;;;7.00;99.15;97089.00;5037351;28;20454;-73
2022/04/06 03:52:47;;;;;;;14.23;12.23;;;8.30;99.90;;;6.92;99.46;97091.97;5047340;28;20484;-73
2022/04/06 03:55:15;;;;;;;14.80;13.30;;;8.30;99.90;;;6.97;99.16;97093.97;5040829;28;20507;-75
2022/04/06 03:57:42;;;;;;;14.40;12.00;;;8.30;99.90;;;7.05;98.42;97101.78;5051323;28;20465;-71
2022/04/06 04:00:12;;;;;;;13.83;12.27;;;8.30;99.90;;;7.11;97.59;97089.38;5048893;28;20465;-74
2022/04/06 04:02:39;;;;;;;13.40;12.10;;;8.40;99.90;;;7.12;97.33;97081.06;5061214;28;20456;-74
2022/04/06 04:05:07;;;;;;;12.80;11.50;;;8.40;99.90;;;7.14;97.34;97078.19;5042982;28;20509;-72
2022/04/06 04:07:37;;;;;;;13.53;12.23;;;8.50;99.90;;;7.09;96.83;97076.13;5037419;28;20547;-73
2022/04/06 04:10:07;;;;;;;12.40;11.17;;;8.50;99.90;;;7.07;97.21;97073.69;5041725;28;20456;-74
2022/04/06 04:12:36;;;;;;;13.17;11.97;;;8.40;99.90;;;6.96;97.21;97069.00;5044030;28;20488;-74
2022/04/06 04:15:04;;;;;;;13.80;12.40;;;8.40;99.90;;;7.03;97.35;97082.38;5048026;28;20483;-74
2022/04/06 04:17:31;;;;;;;11.07;10.00;;;8.40;99.90;;;7.04;97.23;97079.47;5040726;28;20486;-73
2022/04/06 04:19:58;;;;;;;12.40;11.20;;;8.30;99.90;;;7.10;96.80;97077.78;5045149;28;20545;-73
2022/04/06 04:22:25;;;;;;;12.83;11.63;;;8.40;99.90;;;6.85;97.38;97048.19;5038214;28;20452;-74
2022/04/06 04:24:52;;;;;;;12.83;11.53;;;8.40;99.90;;;7.06;96.70;97080.09;5042406;28;20550;-74
2022/04/06 04:27:19;;;;;;;12.80;11.50;;;8.40;99.90;;;7.06;96.92;97084.63;5050944;28;20459;-74
2022/04/06 04:29:48;;;;;;;12.17;10.97;;;8.40;99.90;;;7.07;96.90;97078.22;5048658;28;20467;-74
2022/04/06 04:32:16;;;;;;;12.17;10.97;;;8.40;99.90;;;7.04;96.77;97079.47;5051152;28;20504;-75
2022/04/06 04:34:43;;;;;;;12.97;11.67;;;8.40;99.90;;;7.08;96.70;97080.72;5040821;28;20481;-74
2022/04/06 04:37:10;;;;;;;13.47;12.17;;;8.40;99.90;;;7.06;96.81;97080.09;5042765;28;20493;-75
2022/04/06 04:39:37;;;;;;;13.50;12.20;;;8.40;99.90;;;7.03;96.57;97083.19;5043072;28;20545;-74
2022/04/06 04:42:05;;;;;;;12.73;11.43;;;8.40;99.90;;;7.00;97.00;97078.25;5056535;28;20459;-73
2022/04/06 04:44:32;;;;;;;13.03;11.73;;;8.40;99.90;;;7.15;96.25;97090.56;5038259;28;20469;-74
2022/04/06 04:47:01;;;;;;;12.17;10.80;;;8.40;99.90;;;7.28;95.28;97074.38;5045329;28;20559;-74
2022/04/06 04:49:28;;;;;;;13.13;11.83;;;8.60;99.90;;;7.32;94.82;97089.00;5030788;28;20534;-74
2022/04/06 04:51:55;;;;;;;11.20;10.10;;;8.60;99.90;;;7.18;94.76;97065.97;5040415;28;20460;-74
2022/04/06 04:54:24;;;;;;;10.83;9.83;;;8.60;99.90;;;7.34;94.15;97086.94;5036245;28;20633;-74
2022/04/06 04:56:52;;;;;;;11.00;10.00;;;8.60;99.90;;;7.43;94.06;97086.69;5038444;28;20456;-74
2022/04/06 04:59:19;;;;;;;10.73;9.60;;;8.70;99.90;;;7.01;94.04;97034.25;5037800;28;20470;-74
2022/04/06 05:01:46;;;;;;;11.40;10.30;;;8.60;99.90;;;7.41;94.41;97083.38;5051071;28;20583;-75
2022/04/06 05:04:15;;;;;;;11.43;10.33;;;8.70;99.90;;;7.43;93.79;97078.63;5044309;28;20537;-74
2022/04/06 05:06:42;;;;;;;12.13;10.83;;;8.70;99.90;;;7.35;94.14;97079.69;5037987;28;20543;-74
2022/04/06 05:09:09;;;;;;;11.93;10.73;;;8.70;99.90;;;7.22;93.47;97059.94;5039038;28;20488;-74
2022/04/06 05:11:36;;;;;;;11.10;10.00;;;8.70;99.90;;;7.44;93.29;97082.94;5041917;28;20642;-75
2022/04/06 05:14:03;;;;;;;10.60;9.60;;;8.70;99.80;;;7.41;92.87;97080.69;5046312;28;20475;-74
2022/04/06 05:16:31;;;;;;;10.80;9.70;;;8.70;99.30;;;7.37;93.05;97089.19;5037459;28;20463;-73
2022/04/06 05:19:01;;;;;;;10.80;9.80;;;8.70;99.40;;;7.31;93.20;97079.31;5038253;28;20448;-75
2022/04/06 05:21:29;;;;;;;11.27;10.27;;;8.70;99.30;;;7.46;92.57;97081.69;5038609;28;20493;-74
2022/04/06 05:23:57;;;;;;;12.60;10.67;;;8.80;98.50;;;7.43;92.15;97070.56;5059054;28;20456;-74
2022/04/06 05:26:25;;;;;;;11.43;10.30;;;8.80;98.40;;;7.48;92.16;97074.22;5037698;28;20520;-77
2022/04/06 05:28:52;;;;;;;10.73;9.70;;;8.80;98.10;;;7.43;92.49;97059.81;5052352;28;20890;-72
2022/04/06 05:31:19;;;;;;;10.40;9.40;;;8.80;98.60;;;7.58;92.58;97078.28;5044715;28;20463;-73
2022/04/06 05:33:46;;;;;;;11.60;9.80;;;8.80;99.40;;;7.56;91.56;97066.94;5044542;28;20481;-74
2022/04/06 05:36:14;;;;;;;12.23;11.03;;;8.90;97.70;;;7.58;92.39;97071.06;5046942;28;20455;-74
2022/04/06 05:38:42;;;;;;;12.47;11.23;;;8.90;98.60;;;7.48;92.11;97079.59;5050117;28;20495;-74
2022/04/06 05:41:09;;;;;;;11.63;10.43;;;8.90;98.00;;;7.65;91.82;97077.19;5044302;28;20605;-74
2022/04/06 05:43:36;;;;;;;13.23;10.93;;;8.90;97.90;;;7.69;91.93;97074.06;5042802;28;20471;-73
2022/04/06 05:46:03;;;;;;;13.77;11.97;;;9.00;98.10;;;7.68;92.27;97073.25;5035343;28;20843;-73
2022/04/06 05:48:30;;;;;;;13.23;11.80;;;9.00;97.80;;;7.63;92.10;97065.81;5045506;28;20468;-73
2022/04/06 05:50:57;;;;;;;12.20;11.07;;;9.00;97.60;;;7.64;92.25;97075.53;5044627;28;20463;-72
2022/04/06 05:53:24;;;;;;;13.87;12.20;;;9.00;98.20;;;7.69;92.38;97079.44;5045242;28;20472;-73
2022/04/06 05:55:53;;;;;;;13.20;11.90;;;9.00;98.00;;;7.64;92.87;97077.41;5037226;28;20461;-75
2022/04/06 05:58:20;;;;;;;12.13;10.85;;;9.00;98.60;;;7.74;92.05;97075.06;5059223;28;20459;-74
2022/04/06 06:00:47;;;;;;;12.13;11.03;;;9.10;98.10;;;7.80;91.72;97078.72;5037514;28;20198;-73
2022/04/06 06:03:14;;;;;;;11.70;10.50;;;9.10;98.00;;;8.01;91.28;97077.47;5042930;28;20473;-73
2022/04/06 06:05:41;;;;;;;11.30;9.30;;;9.20;97.50;;;7.90;90.08;97037.91;5039653;28;20495;-75
2022/04/06 06:08:08;;;;;;;12.07;10.87;;;9.30;96.20;;;8.14;89.92;97087.31;5045240;28;20540;-74
2022/04/06 06:10:35;;;;;;;13.00;9.80;;;9.40;95.10;;;8.25;89.77;97082.22;5051528;28;20468;-76
2022/04/06 06:13:04;;;;;;;11.20;10.00;;;9.40;95.60;;;8.21;89.13;97082.66;5045400;28;20961;-71
2022/04/06 06:15:31;;;;;;;11.50;10.40;;;9.50;94.50;;;8.21;89.03;97077.28;5039644;28;20477;-71
2022/04/06 06:17:58;;;;;;;9.23;8.33;;;9.50;94.40;;;8.11;89.43;97093.13;5044999;28;20490;-80
2022/04/06 06:20:27;;;;;;;11.87;10.67;;;9.40;95.00;;;8.15;89.52;97090.81;5050556;28;20471;-81
2022/04/06 06:22:54;;;;;;;10.20;9.20;;;9.40;94.80;;;8.17;88.91;97089.56;5052510;28;20559;-77
2022/04/06 06:25:21;;;;;;;11.73;10.43;;;9.40;94.60;;;8.12;89.46;97086.72;5051174;28;20531;-73
2022/04/06 06:27:48;;;;;;;11.17;10.03;;;9.40;94.90;;;8.22;89.46;97084.31;5048627;28;20511;-79
2022/04/06 06:30:17;;;;;;;10.57;9.63;;;9.40;95.00;;;8.23;88.59;97090.53;5037302;28;20463;-79
2022/04/06 06:32:45;;;;;;;10.97;9.87;;;9.50;94.20;;;8.25;88.38;97087.59;5056176;28;20461;-78
2022/04/06 06:35:13;;;;;;;10.50;9.40;;;9.50;93.80;;;8.16;88.56;97076.31;5044800;28;20566;-85
2022/04/06 06:37:47;;;;;;;10.50;9.47;;;9.50;93.80;;;8.56;87.56;97075.91;5049410;28;20463;-77
2022/04/06 06:40:14;;;;;;;11.10;9.87;;;9.70;93.70;;;8.64;86.40;97075.59;5049675;28;20493;-78
2022/04/06 06:42:41;;;;;;;9.50;8.57;;;9.80;92.60;;;8.78;85.65;97073.56;5052491;28;20469;-76
2022/04/06 06:45:09;;;;;;;11.40;10.23;;;10.00;91.40;;;8.84;85.34;97062.91;5049797;28;20849;-78
2022/04/06 06:47:40;;;;;;;11.67;9.97;;;10.10;90.90;;;8.75;84.72;97071.31;5050103;28;20475;-71
2022/04/06 06:50:09;;;;;;;10.90;9.80;;;10.10;90.60;;;8.58;85.90;97064.91;5062181;28;20494;-77
2022/04/06 06:52:39;;;;;;;10.17;9.07;;;10.00;90.60;;;8.81;85.04;97076.84;5070342;28;21096;-77
2022/04/06 06:55:08;;;;;;;10.93;9.50;;;10.00;90.70;;;8.76;85.69;97072.97;5056691;28;20564;-75
2022/04/06 06:57:36;;;;;;;10.20;9.27;;;10.10;91.00;;;9.02;83.84;97070.97;5062429;28;20471;-77
2022/04/06 07:00:05;;;;;;;10.13;9.10;;;10.20;90.40;;;9.20;83.60;97070.09;5039321;28;20449;-74
2022/04/06 07:02:32;;;;;;;10.47;9.47;;;10.40;89.50;;;9.09;82.86;97064.66;5052307;28;20463;-76
2022/04/06 07:05:01;;;;;;;10.07;9.17;;;10.40;88.50;;;9.27;82.39;97069.97;5055122;28;20444;-82
2022/04/06 07:07:28;;;;;;;12.20;10.20;;;10.50;88.40;;;9.47;81.56;97055.38;5042036;28;20455;-79
2022/04/06 07:09:55;;;;;;;9.93;8.93;;;10.60;88.20;;;9.76;79.66;97059.06;5056901;28;20594;-73
2022/04/06 07:12:22;;;;;;;8.37;7.37;;;10.80;86.40;;;9.27;81.06;97059.19;5053441;28;20463;-78
2022/04/06 07:14:49;;;;;;;8.43;7.63;;;10.60;85.90;;;9.41;80.19;97051.75;5043335;28;20484;-73
2022/04/06 07:17:19;;;;;;;8.70;7.90;;;10.60;85.90;;;9.08;81.44;97042.28;5063381;28;20482;-78
2022/04/06 07:19:46;;;;;;;7.80;7.10;;;10.50;86.00;;;9.06;81.77;97039.81;5047025;28;20464;-74
2022/04/06 07:22:14;;;;;;;8.53;7.80;;;10.50;86.40;;;9.27;81.48;97050.31;5061776;28;20477;-73
2022/04/06 07:24:41;;;;;;;9.00;8.20;;;10.50;86.60;;;9.81;78.66;97049.44;5043551;28;20456;-72
2022/04/06 07:27:08;;;;;;;8.20;7.50;;;10.80;85.20;;;9.56;79.38;97051.28;5064060;28;20517;-73
2022/04/06 07:29:35;;;;;;;8.83;8.00;;;10.80;84.70;;;9.45;79.50;97046.69;5055625;28;20457;-76
2022/04/06 07:32:02;;;;;;;8.07;7.20;;;10.80;84.70;;;9.32;80.16;97043.16;5060008;28;20639;-78
2022/04/06 07:34:29;;;;;;;8.47;7.67;;;10.60;85.10;;;9.33;79.92;97047.50;5055650;28;20492;-74
2022/04/06 07:36:56;;;;;;;7.87;7.07;;;10.60;84.90;;;9.56;79.04;97043.19;5054418;28;20563;-74
2022/04/06 07:39:26;;;;;;;8.40;7.33;;;10.70;84.40;;;9.56;79.78;97048.59;5055296;28;20471;-71
2022/04/06 07:41:55;;;;;;;7.77;7.10;;;10.70;84.60;;;9.76;77.76;97037.47;5054613;28;20475;-75
2022/04/06 07:44:22;;;;;;;8.50;7.33;;;10.90;83.80;;;9.67;78.39;97043.44;5050851;28;20488;-72
2022/04/06 07:46:50;;;;;;;8.73;7.40;;;11.00;83.60;;;9.73;78.20;97042.50;5051253;28;20546;-74
2022/04/06 07:49:18;;;;;;;7.53;6.80;;;10.90;83.70;;;9.82;77.40;97042.97;5051550;28;20456;-75
2022/04/06 07:51:46;;;;;;;8.13;7.43;;;11.10;83.40;;;9.63;78.62;97046.63;5052986;28;21389;-74
2022/04/06 07:54:13;;;;;;;8.37;7.50;;;10.90;83.70;;;9.68;78.16;97042.41;5049606;28;20964;-74
2022/04/06 07:56:42;;;;;;;8.53;7.73;;;10.90;83.90;;;9.86;77.01;97042.28;5046530;28;20496;-75
2022/04/06 07:59:09;;;;;;;7.80;7.20;;;11.00;83.40;;;9.78;77.51;97039.91;5056589;28;20465;-75
2022/04/06 08:01:37;;;;;;;8.63;7.47;;;11.00;83.20;;;9.77;77.34;97032.88;5043428;28;20473;-74
2022/04/06 08:04:04;;;;;;;8.23;7.40;;;11.00;83.10;;;9.80;76.73;97027.03;5041224;28;20485;-74
2022/04/06 08:06:31;;;;;;;9.20;7.40;;;11.10;82.90;;;9.74;78.17;97036.06;5043975;28;20582;-74
2022/04/06 08:08:59;;;;;;;7.03;6.33;;;11.00;83.00;;;9.63;78.69;97035.84;5045999;28;22135;-75
2022/04/06 08:11:26;;;;;;;7.27;6.60;;;10.90;83.50;;;9.64;78.22;97040.16;5050197;28;21138;-74
2022/04/06 08:13:55;;;;;;;7.77;7.07;;;10.90;83.90;;;9.62;78.71;97041.44;5041026;28;20462;-74
2022/04/06 08:16:22;;;;;;;7.33;6.70;;;10.90;83.80;;;9.32;79.12;97045.84;5037127;28;20520;-75
2022/04/06 08:18:49;;;;;;;7.60;6.90;;;10.70;83.80;;;9.51;79.27;97037.69;5045049;28;20484;-73
2022/04/06 08:21:17;;;;;;;7.13;6.40;;;10.70;84.10;;;9.64;77.10;97040.16;5046631;28;20584;-73
2022/04/06 08:23:44;;;;;;;7.90;7.20;;;10.80;83.30;;;9.60;77.01;96993.13;5041100;28;20459;-70
2022/04/06 08:26:11;;;;;;;5.80;5.30;;;11.00;83.00;;;9.95;75.34;97034.66;5046490;28;20456;-72
2022/04/06 08:28:40;;;;;;;6.80;5.90;;;11.20;81.80;;;9.90;76.06;97042.63;5040267;28;20562;-72
2022/04/06 08:31:09;;;;;;;7.30;6.33;;;11.20;81.60;;;10.03;75.09;97037.00;5056938;28;20455;-69
2022/04/06 08:33:38;;;;;;;6.00;5.50;;;11.20;81.90;;;10.34;73.93;97034.13;5041526;28;20461;-78
2022/04/06 08:36:06;;;;;;;7.40;5.90;;;11.50;81.00;;;10.42;73.01;97032.97;5046514;28;20579;-80
2022/04/06 08:38:33;;;;;;;6.00;5.40;;;11.60;80.10;;;10.42;73.35;97032.97;5047680;28;20476;-80
2022/04/06 08:41:00;;;;;;;5.80;5.30;;;11.60;79.80;;;10.41;73.29;97026.75;5052035;28;21275;-78
2022/04/06 08:43:27;;;;;;;6.10;5.33;;;11.60;79.70;;;10.36;73.14;97023.91;5044972;28;21045;-81
2022/04/06 08:45:56;;;;;;;6.13;5.60;;;11.60;79.40;;;10.34;73.07;97016.06;5053304;28;21062;-77
2022/04/06 08:48:29;;;;;;;6.17;5.57;;;11.60;79.90;;;10.40;74.55;97019.69;5058183;28;20646;-76
2022/04/06 08:51:00;;;;;;;5.23;4.83;;;11.60;80.40;;;10.42;73.44;97028.41;5034773;28;20468;-78
2022/04/06 08:53:27;;;;;;;4.80;4.40;;;11.70;79.80;;;10.37;73.85;97038.25;5044296;28;20512;-78
2022/04/06 08:55:54;;;;;;;5.63;5.13;;;11.60;80.00;;;10.56;72.99;97038.94;5030073;28;20476;-72
2022/04/06 08:58:21;;;;;;;5.40;4.90;;;11.70;79.80;;;10.58;72.12;97036.81;5053027;28;20508;-77
2022/04/06 09:00:48;;;;;;;5.60;4.63;;;11.70;79.60;;;10.85;71.64;97038.97;5031360;28;20458;-80
2022/04/06 09:03:16;;;;;;;5.80;4.80;;;11.90;79.60;;;11.42;70.03;97031.84;5040963;28;21274;-74
2022/04/06 09:05:45;;;;;;;4.97;4.60;;;12.40;79.00;;;11.76;68.49;97029.16;5041721;28;20467;-74
2022/04/06 09:08:12;;;;;;;6.73;5.53;;;12.80;78.10;;;11.89;67.86;97033.38;5050276;28;20503;-82
2022/04/06 09:10:42;;;;;;;5.93;5.33;;;13.00;77.50;;;11.22;68.50;97025.03;5037981;28;20472;-77
2022/04/06 09:13:15;;;;;;;6.03;5.07;;;12.80;76.60;;;11.27;68.73;97022.38;5032431;28;20521;-75
2022/04/06 09:15:43;;;;;;;5.97;5.40;;;12.50;77.00;;;11.30;68.55;97024.63;5044653;28;20529;-79
2022/04/06 09:18:10;;;;;;;4.93;4.50;;;12.50;76.70;;;11.20;68.45;97022.53;5045970;28;20457;-79
2022/04/06 09:20:37;;;;;;;5.43;4.93;;;12.50;76.50;;;11.39;68.22;97013.41;5053445;28;20463;-78
2022/04/06 09:23:08;;;;;;;5.37;4.77;;;12.60;76.70;;;10.82;68.57;96969.16;5034830;28;20461;-78
2022/04/06 09:25:36;;;;;;;4.50;4.10;;;12.50;76.40;;;11.16;69.09;97028.72;5046179;28;20878;-79
2022/04/06 09:28:09;;;;;;;5.70;4.60;;;12.30;76.70;;;11.22;68.50;97014.19;5037224;28;20582;-79
2022/04/06 09:30:40;;;;;;;4.90;4.47;;;12.40;76.80;;;11.21;68.78;97020.69;5039821;28;20479;-80
2022/04/06 09:33:14;;;;;;;5.53;4.70;;;12.40;76.60;;;10.99;68.80;97021.34;5042212;28;21011;-79
2022/04/06 09:35:43;;;;;;;4.80;4.30;;;12.30;76.50;;;11.01;69.38;97024.66;5053300;28;20482;-82
2022/04/06 09:38:19;;;;;;;4.90;4.50;;;12.30;76.70;;;10.96;68.81;97026.44;5045856;28;20997;-77
2022/04/06 09:40:47;;;;;;;5.50;5.00;;;12.20;76.50;;;10.72;69.96;97026.53;5034112;28;20476;-75
2022/04/06 09:43:28;;;;;;;4.93;4.50;;;12.00;76.40;;;10.66;70.46;97020.22;5040726;28;20550;-80
2022/04/06 09:48:57;;;;;;;5.20;4.70;;;12.10;76.60;;;10.99;68.69;97012.44;5058271;28;20448;-71
2022/04/06 09:51:24;;;;;;;5.70;4.97;;;12.30;76.30;;;11.05;68.25;97023.13;5059200;28;20507;-75
2022/04/06 09:53:54;;;;;;;6.10;4.77;;;12.30;76.20;;;11.14;68.13;97022.69;5046165;28;20460;-76
2022/04/06 09:56:22;;;;;;;6.87;4.87;;;12.30;76.10;;;11.61;66.61;97010.78;5037064;28;20488;-71
2022/04/06 09:58:50;;;;;;;5.20;4.57;;;12.70;75.70;;;11.36;67.66;97017.41;5044900;28;20474;-69
2022/04/06 10:01:18;;;;;;;9.52;6.00;;;12.70;75.60;;;11.41;67.47;97022.91;5041785;28;20472;-75
2022/04/06 10:03:50;;;;;;;5.40;4.90;;;12.60;75.50;;;11.67;65.59;96979.22;5043276;28;20591;-75
2022/04/06 10:06:18;;;;;;;5.97;5.40;;;12.90;75.00;;;11.42;66.58;97011.03;5046267;28;20460;-74
2022/04/06 10:08:46;;;;;;;5.10;4.33;;;12.80;74.80;;;11.45;66.05;97005.13;5036117;28;20485;-73
2022/04/06 10:11:17;;;;;;;5.63;5.03;;;12.70;74.50;;;11.39;66.89;97003.41;5037253;28;20523;-72
2022/04/06 10:13:45;;;;;;;4.27;3.83;;;12.60;74.70;;;11.34;66.57;96996.03;5041214;28;20535;-76
2022/04/06 10:16:13;;;;;;;5.20;4.80;;;12.60;74.70;;;11.51;66.35;96994.38;5040623;28;21076;-72
2022/04/06 10:18:42;;;;;;;5.43;4.30;;;12.70;74.50;;;11.62;66.67;96991.59;5042398;28;22361;-74
2022/04/06 10:21:16;;;;;;;4.73;4.20;;;12.80;74.80;;;11.83;65.73;96986.47;5033784;28;20465;-75
2022/04/06 10:23:54;;;;;;;5.53;5.03;;;13.00;74.60;;;12.29;64.17;96974.66;5040936;28;20460;-76
2022/04/06 10:26:44;;;;;;;5.40;4.33;;;13.40;74.10;;;12.88;61.82;96954.97;5045734;28;20596;-77
2022/04/06 10:29:10;;;;;;;4.93;4.37;;;14.00;73.30;;;12.92;62.43;96963.41;5045662;28;21038;-75
2022/04/06 10:31:38;;;;;;;5.20;4.17;;;14.20;72.50;;;13.43;60.88;96952.22;5047373;28;20800;-71
2022/04/06 10:34:28;;;;;;;4.43;4.03;;;14.50;72.30;;;13.96;59.26;96954.19;5044463;28;20836;-76